Time;durP1;ratioP1;P1;durP2;ratioP2;P2;SDS_P1;SDS_P2;PMS_P1;PMS_P2;Temp;Humidity;BMP_temperature;BMP_pressure;BME280_temperature;BME280_humidity;BME280_pressure;Samples;Min_cycle;Max_cycle;Signal;HPM_P1;HPM_P2
2023/05/10 00:00:29;;;;;;;1999.90;999.90;;;;;;;;;;5072637;28;20086;-69
2023/05/10 00:02:55;;;;;;;1999.90;999.90;;;;;;;;;;5072312;28;20029;-68
2023/05/10 00:05:21;;;;;;;1999.90;999.90;;;;;;;;;;5072023;28;20024;-68
2023/05/10 00:07:47;;;;;;;1999.90;999.90;;;;;;;;;;5071352;28;20028;-67
2023/05/10 00:10:13;;;;;;;1999.90;999.90;;;;;;;;;;5072186;28;20031;-69
2023/05/10 00:12:39;;;;;;;1999.90;999.90;;;;;;;;;;5072499;28;20032;-69
2023/05/10 00:15:05;;;;;;;1999.90;999.90;;;;;;;;;;5072482;28;20016;-67
2023/05/10 00:17:31;;;;;;;1999.90;999.90;;;;;;;;;;5072718;28;20024;-69
2023/05/10 00:19:57;;;;;;;1999.90;999.90;;;;;;;;;;5072223;28;20035;-70
2023/05/10 00:22:23;;;;;;;1999.90;999.90;;;;;;;;;;5072204;28;20104;-65
2023/05/10 00:24:49;;;;;;;1999.90;999.90;;;;;;;;;;5072178;28;20043;-69
2023/05/10 00:27:15;;;;;;;1999.90;999.90;;;;;;;;;;5072004;28;20048;-69
2023/05/10 00:29:41;;;;;;;1999.90;999.90;;;;;;;;;;5071876;28;20028;-69
2023/05/10 00:32:08;;;;;;;1999.90;999.90;;;;;;;;;;5071799;28;20358;-68
2023/05/10 00:34:34;;;;;;;1999.90;999.90;;;;;;;;;;5053217;28;20446;-68
2023/05/10 00:37:00;;;;;;;1999.90;999.90;;;;;;;;;;5071874;28;20020;-66
2023/05/10 00:39:28;;;;;;;1999.90;999.90;;;;;;;;;;5071949;28;20024;-69
2023/05/10 00:41:54;;;;;;;1999.90;999.90;;;;;;;;;;5071857;28;20043;-66
2023/05/10 00:44:20;;;;;;;1999.90;999.90;;;;;;;;;;5071716;28;20032;-69
2023/05/10 00:46:47;;;;;;;1999.90;999.90;;;;;;;;;;5071464;28;20032;-66
2023/05/10 00:49:13;;;;;;;1999.90;999.90;;;;;;;;;;5071592;28;20101;-66
2023/05/10 00:51:39;;;;;;;1999.90;999.90;;;;;;;;;;5071812;28;20103;-67
2023/05/10 00:54:06;;;;;;;1999.90;999.90;;;;;;;;;;5071396;28;20023;-68
2023/05/10 00:56:32;;;;;;;1999.90;999.90;;;;;;;;;;5071173;28;20478;-68
2023/05/10 00:58:58;;;;;;;1999.90;999.90;;;;;;;;;;5071599;28;20361;-69
2023/05/10 01:01:25;;;;;;;1999.90;999.90;;;;;;;;;;5071185;28;20103;-65
2023/05/10 01:03:52;;;;;;;1999.90;999.90;;;;;;;;;;5071278;28;20024;-66
2023/05/10 01:06:18;;;;;;;1999.90;999.90;;;;;;;;;;5071258;28;20433;-69
2023/05/10 01:08:44;;;;;;;1999.90;999.90;;;;;;;;;;5071434;28;20056;-69
2023/05/10 01:11:10;;;;;;;1999.90;999.90;;;;;;;;;;5071397;28;20066;-67
2023/05/10 01:13:38;;;;;;;1999.90;999.90;;;;;;;;;;5070860;28;20039;-70
2023/05/10 01:16:06;;;;;;;1999.90;999.90;;;;;;;;;;5071128;28;20026;-70
2023/05/10 01:18:33;;;;;;;1999.90;999.90;;;;;;;;;;5070978;28;20016;-70
2023/05/10 01:21:18;;;;;;;1999.90;999.90;;;;;;;;;;5071243;28;20094;-66
2023/05/10 01:23:53;;;;;;;1999.90;999.90;;;;;;;;;;5071136;28;20035;-69
2023/05/10 01:26:42;;;;;;;1999.90;999.90;;;;;;;;;;5071009;28;20041;-69
2023/05/10 01:29:29;;;;;;;1999.90;999.90;;;;;;;;;;5070406;28;20037;-69
2023/05/10 01:32:07;;;;;;;1999.90;999.90;;;;;;;;;;5070996;28;20024;-69
2023/05/10 01:34:40;;;;;;;1999.90;999.90;;;;;;;;;;5071106;28;20036;-66
2023/05/10 01:37:11;;;;;;;1999.90;999.90;;;;;;;;;;5071070;28;20036;-69
2023/05/10 01:39:41;;;;;;;1999.90;999.90;;;;;;;;;;5070831;28;20035;-69
2023/05/10 01:42:36;;;;;;;1999.90;999.90;;;;;;;;;;5070910;28;20025;-69
2023/05/10 01:45:17;;;;;;;1999.90;999.90;;;;;;;;;;4969720;28;20585;-65
2023/05/10 01:47:45;;;;;;;1999.90;999.90;;;;;;;;;;4969773;28;20126;-65
2023/05/10 01:50:20;;;;;;;1999.90;999.90;;;;;;;;;;4969275;28;20035;-67
2023/05/10 01:52:50;;;;;;;1999.90;999.90;;;;;;;;;;4969902;28;20038;-69
2023/05/10 01:55:18;;;;;;;1999.90;999.90;;;;;;;;;;4969524;28;20043;-70
2023/05/10 01:57:45;;;;;;;1999.90;999.90;;;;;;;;;;4969963;28;20051;-66
2023/05/10 02:00:12;;;;;;;1999.90;999.90;;;;;;;;;;4969537;28;20022;-68
2023/05/10 02:02:40;;;;;;;1999.90;999.90;;;;;;;;;;4971427;28;20151;-69
2023/05/10 02:05:07;;;;;;;1999.90;999.90;;;;;;;;;;4971648;28;20034;-69
2023/05/10 02:07:35;;;;;;;1999.90;999.90;;;;;;;;;;4969565;28;20047;-66
2023/05/10 02:10:02;;;;;;;1999.90;999.90;;;;;;;;;;4969594;28;20118;-67
2023/05/10 02:12:29;;;;;;;1999.90;999.90;;;;;;;;;;4969318;28;20047;-66
2023/05/10 02:14:55;;;;;;;1999.90;999.90;;;;;;;;;;4969518;28;20110;-69
2023/05/10 02:17:22;;;;;;;1999.90;999.90;;;;;;;;;;4969602;28;20038;-66
2023/05/10 02:19:48;;;;;;;1999.90;999.90;;;;;;;;;;4969814;28;20479;-69
2023/05/10 02:22:16;;;;;;;1999.90;999.90;;;;;;;;;;5054500;28;20045;-65
2023/05/10 02:24:43;;;;;;;1999.90;999.90;;;;;;;;;;5070019;28;20028;-66
2023/05/10 02:27:10;;;;;;;1999.90;999.90;;;;;;;;;;5070310;28;20048;-68
2023/05/10 02:29:37;;;;;;;1999.90;999.90;;;;;;;;;;5069997;28;20024;-69
2023/05/10 02:32:03;;;;;;;1999.90;999.90;;;;;;;;;;5070127;28;20079;-68
2023/05/10 02:34:30;;;;;;;1999.90;999.90;;;;;;;;;;5070356;28;20024;-67
2023/05/10 02:36:57;;;;;;;1999.90;999.90;;;;;;;;;;5070407;28;20021;-70
2023/05/10 02:39:23;;;;;;;1999.90;999.90;;;;;;;;;;5070479;28;20514;-68
2023/05/10 02:41:50;;;;;;;1999.90;999.90;;;;;;;;;;5070402;28;20076;-67
2023/05/10 02:44:19;;;;;;;1999.90;999.90;;;;;;;;;;5070342;28;20029;-67
2023/05/10 02:46:45;;;;;;;1999.90;999.90;;;;;;;;;;5070264;28;20434;-65
2023/05/10 02:49:11;;;;;;;1999.90;999.90;;;;;;;;;;5070241;28;20028;-66
2023/05/10 02:51:41;;;;;;;1999.90;999.90;;;;;;;;;;5070214;28;20024;-69
2023/05/10 02:54:11;;;;;;;1999.90;999.90;;;;;;;;;;5069769;28;20472;-66
2023/05/10 02:56:41;;;;;;;1999.90;999.90;;;;;;;;;;5069910;28;20052;-68
2023/05/10 02:59:07;;;;;;;1999.90;999.90;;;;;;;;;;5070101;28;20486;-67
2023/05/10 03:01:33;;;;;;;1999.90;999.90;;;;;;;;;;5074034;28;20071;-70
2023/05/10 03:04:00;;;;;;;1999.90;999.90;;;;;;;;;;5073759;28;20384;-67
2023/05/10 03:06:26;;;;;;;1999.90;999.90;;;;;;;;;;5073778;28;20028;-66
2023/05/10 03:08:52;;;;;;;1999.90;999.90;;;;;;;;;;5074041;28;20016;-67
2023/05/10 03:11:36;;;;;;;1999.90;999.90;;;;;;;;;;5073942;28;20031;-66
2023/05/10 03:14:09;;;;;;;1999.90;999.90;;;;;;;;;;5073588;28;20059;-69
2023/05/10 03:16:41;;;;;;;1999.90;999.90;;;;;;;;;;5073610;28;20077;-66
2023/05/10 03:19:07;;;;;;;;;;;;;;;;;;5073864;28;20535;-68
2023/05/10 03:21:33;;;;;;;1999.90;999.90;;;;;;;;;;5073553;28;20050;-69
2023/05/10 03:24:01;;;;;;;1999.90;999.90;;;;;;;;;;5073508;28;20028;-68
2023/05/10 03:26:28;;;;;;;1999.90;999.90;;;;;;;;;;5073154;28;20383;-69
2023/05/10 03:28:54;;;;;;;1999.90;999.90;;;;;;;;;;5073347;28;20033;-66
2023/05/10 03:31:20;;;;;;;1999.90;999.90;;;;;;;;;;5073203;28;20055;-68
2023/05/10 03:33:47;;;;;;;1999.90;999.90;;;;;;;;;;5073060;28;20049;-69
2023/05/10 03:36:13;;;;;;;1999.90;999.90;;;;;;;;;;5072993;28;20107;-68
2023/05/10 03:38:39;;;;;;;1999.90;999.90;;;;;;;;;;5073106;28;20032;-69
2023/05/10 03:41:05;;;;;;;1999.90;999.90;;;;;;;;;;5072811;28;20036;-66
2023/05/10 03:43:31;;;;;;;1999.90;999.90;;;;;;;;;;5072873;28;20100;-66
2023/05/10 03:45:57;;;;;;;1999.90;999.90;;;;;;;;;;5072581;28;20440;-69
2023/05/10 03:48:23;;;;;;;1999.90;999.90;;;;;;;;;;5072989;28;20048;-67
2023/05/10 03:50:49;;;;;;;1999.90;999.90;;;;;;;;;;5072886;28;20442;-70
2023/05/10 03:53:16;;;;;;;1999.90;999.90;;;;;;;;;;5072911;28;20024;-67
2023/05/10 03:55:42;;;;;;;1999.90;999.90;;;;;;;;;;5072403;28;20559;-68
2023/05/10 03:58:11;;;;;;;1999.90;999.90;;;;;;;;;;5072693;28;20116;-66
2023/05/10 04:00:37;;;;;;;1999.90;999.90;;;;;;;;;;5072631;28;20495;-67
2023/05/10 04:03:03;;;;;;;1999.90;999.90;;;;;;;;;;5072739;28;20030;-66
2023/05/10 04:05:29;;;;;;;1999.90;999.90;;;;;;;;;;5072633;28;20059;-67
2023/05/10 04:07:55;;;;;;;1999.90;999.90;;;;;;;;;;5072574;28;20492;-66
2023/05/10 04:10:21;;;;;;;1999.90;999.90;;;;;;;;;;5072498;28;20052;-68
2023/05/10 04:12:47;;;;;;;1999.90;999.90;;;;;;;;;;5071957;28;20043;-67
2023/05/10 04:15:14;;;;;;;1999.90;999.90;;;;;;;;;;5053928;28;20434;-66
2023/05/10 04:17:40;;;;;;;1999.90;999.90;;;;;;;;;;5072307;28;20065;-69
2023/05/10 04:20:06;;;;;;;1999.90;999.90;;;;;;;;;;5072347;28;20044;-66
2023/05/10 04:22:32;;;;;;;1999.90;999.90;;;;;;;;;;5072549;28;20021;-68
2023/05/10 04:24:58;;;;;;;1999.90;999.90;;;;;;;;;;5072222;28;20039;-66
2023/05/10 04:27:24;;;;;;;1999.90;999.90;;;;;;;;;;5072134;28;20120;-67
2023/05/10 04:29:50;;;;;;;1999.90;999.90;;;;;;;;;;5072393;28;20082;-67
2023/05/10 04:32:17;;;;;;;1999.90;999.90;;;;;;;;;;5072105;28;20048;-67
2023/05/10 04:34:43;;;;;;;1999.90;999.90;;;;;;;;;;5072022;28;20028;-70
2023/05/10 04:37:09;;;;;;;1999.90;999.90;;;;;;;;;;5072092;28;20031;-70
2023/05/10 04:39:35;;;;;;;1999.90;999.90;;;;;;;;;;5072054;28;20450;-68
2023/05/10 04:42:02;;;;;;;1999.90;999.90;;;;;;;;;;5054316;28;20066;-67
2023/05/10 04:44:29;;;;;;;1999.90;999.90;;;;;;;;;;5071910;28;20062;-70
2023/05/10 04:46:55;;;;;;;1999.90;999.90;;;;;;;;;;5071733;28;20051;-69
2023/05/10 04:49:21;;;;;;;1999.90;999.90;;;;;;;;;;5071672;28;20033;-69
2023/05/10 04:51:47;;;;;;;1999.90;999.90;;;;;;;;;;5071695;28;20032;-70
2023/05/10 04:54:13;;;;;;;1999.90;999.90;;;;;;;;;;5071415;28;20028;-68
2023/05/10 04:56:40;;;;;;;1999.90;999.90;;;;;;;;;;5071489;28;20052;-68
2023/05/10 04:59:06;;;;;;;1999.90;999.90;;;;;;;;;;5071541;28;20103;-67
2023/05/10 05:01:32;;;;;;;1999.90;999.90;;;;;;;;;;5071093;28;20029;-68
2023/05/10 05:03:59;;;;;;;1999.90;999.90;;;;;;;;;;5071427;28;20024;-67
2023/05/10 05:06:26;;;;;;;1999.90;999.90;;;;;;;;;;5071506;28;20101;-67
2023/05/10 05:08:52;;;;;;;1999.90;999.90;;;;;;;;;;5054991;28;20022;-72
2023/05/10 05:11:19;;;;;;;1999.90;999.90;;;;;;;;;;5049625;28;20374;-68
2023/05/10 05:13:45;;;;;;;1999.90;999.90;;;;;;;;;;5049478;28;20536;-74
2023/05/10 05:16:11;;;;;;;1999.90;999.90;;;;;;;;;;5049692;28;20076;-71
2023/05/10 05:18:37;;;;;;;1999.90;999.90;;;;;;;;;;5049896;28;20103;-71
2023/05/10 05:21:03;;;;;;;1999.90;999.90;;;;;;;;;;5049457;28;20029;-69
2023/05/10 05:23:29;;;;;;;1999.90;999.90;;;;;;;;;;5048422;28;20116;-72
2023/05/10 05:25:56;;;;;;;1999.90;999.90;;;;;;;;;;5049413;28;20405;-73
2023/05/10 05:28:22;;;;;;;1999.90;999.90;;;;;;;;;;5039893;28;20413;-65
2023/05/10 05:30:48;;;;;;;1999.90;999.90;;;;;;;;;;5049566;28;20064;-67
2023/05/10 05:33:15;;;;;;;1999.90;999.90;;;;;;;;;;5049432;28;20063;-67
2023/05/10 05:35:42;;;;;;;1999.90;999.90;;;;;;;;;;5049123;28;21267;-69
2023/05/10 05:38:08;;;;;;;1999.90;999.90;;;;;;;;;;5047764;28;20017;-71
2023/05/10 05:40:34;;;;;;;1999.90;999.90;;;;;;;;;;5049705;28;20021;-65
2023/05/10 05:43:00;;;;;;;1999.90;999.90;;;;;;;;;;5049675;28;20021;-69
2023/05/10 05:45:26;;;;;;;1999.90;999.90;;;;;;;;;;5046300;28;20028;-65
2023/05/10 05:47:52;;;;;;;1999.90;999.90;;;;;;;;;;5050549;28;20488;-63
2023/05/10 05:50:19;;;;;;;1999.90;999.90;;;;;;;;;;5050651;28;20111;-63
2023/05/10 05:52:45;;;;;;;1999.90;999.90;;;;;;;;;;5050659;28;20021;-67
2023/05/10 05:55:11;;;;;;;1999.90;999.90;;;;;;;;;;5054250;28;20396;-69
2023/05/10 05:57:38;;;;;;;1999.90;999.90;;;;;;;;;;5069050;28;20040;-69
2023/05/10 06:00:04;;;;;;;1999.90;999.90;;;;;;;;;;5069174;28;20043;-64
2023/05/10 06:02:30;;;;;;;1999.90;999.90;;;;;;;;;;5069455;28;20031;-66
2023/05/10 06:04:56;;;;;;;1999.90;999.90;;;;;;;;;;5070339;28;20021;-64
2023/05/10 06:07:22;;;;;;;1999.90;999.90;;;;;;;;;;5069502;28;20037;-66
2023/05/10 06:09:48;;;;;;;1999.90;999.90;;;;;;;;;;5057306;28;20029;-68
2023/05/10 06:12:14;;;;;;;1999.90;999.90;;;;;;;;;;5069635;28;20055;-63
2023/05/10 06:14:40;;;;;;;1999.90;999.90;;;;;;;;;;5070457;28;20021;-63
2023/05/10 06:17:06;;;;;;;1999.90;999.90;;;;;;;;;;5070486;28;20033;-64
2023/05/10 06:19:32;;;;;;;1999.90;999.90;;;;;;;;;;5070389;28;20036;-68
2023/05/10 06:21:58;;;;;;;1999.90;999.90;;;;;;;;;;5070427;28;20031;-63
2023/05/10 06:24:24;;;;;;;1999.90;999.90;;;;;;;;;;5070198;28;20469;-69
2023/05/10 06:26:50;;;;;;;1999.90;999.90;;;;;;;;;;5070294;28;20102;-65
2023/05/10 06:29:17;;;;;;;1999.90;999.90;;;;;;;;;;5070402;28;20021;-63
2023/05/10 06:31:43;;;;;;;1999.90;999.90;;;;;;;;;;5069822;28;20063;-65
2023/05/10 06:34:11;;;;;;;1999.90;999.90;;;;;;;;;;5070387;28;20044;-69
2023/05/10 06:36:37;;;;;;;1999.90;999.90;;;;;;;;;;5074463;28;20028;-69
2023/05/10 06:39:03;;;;;;;1999.90;999.90;;;;;;;;;;5074155;28;20032;-66
2023/05/10 06:41:29;;;;;;;1999.90;999.90;;;;;;;;;;5073994;28;20025;-62
2023/05/10 06:43:55;;;;;;;1999.90;999.90;;;;;;;;;;5074336;28;20448;-64
2023/05/10 06:46:21;;;;;;;1999.90;999.90;;;;;;;;;;5073556;28;20044;-68
2023/05/10 06:48:47;;;;;;;1999.90;999.90;;;;;;;;;;5074253;28;20054;-62
2023/05/10 06:51:13;;;;;;;1999.90;999.90;;;;;;;;;;5074026;28;20031;-65
2023/05/10 06:53:39;;;;;;;1999.90;999.90;;;;;;;;;;5073921;28;20116;-68
2023/05/10 06:56:05;;;;;;;1999.90;999.90;;;;;;;;;;5073655;28;20056;-69
2023/05/10 06:58:32;;;;;;;1999.90;999.90;;;;;;;;;;5073067;28;20028;-64
2023/05/10 07:01:04;;;;;;;1999.90;999.90;;;;;;;;;;5072830;28;20033;-61
2023/05/10 07:03:31;;;;;;;1999.90;999.90;;;;;;;;;;5073728;28;20013;-62
2023/05/10 07:06:03;;;;;;;1999.90;999.90;;;;;;;;;;5073271;28;20075;-68
2023/05/10 07:08:30;;;;;;;1999.90;999.90;;;;;;;;;;5073144;28;20404;-65
2023/05/10 07:11:03;;;;;;;1999.90;999.90;;;;;;;;;;5072854;28;20377;-68
2023/05/10 07:13:30;;;;;;;1999.90;999.90;;;;;;;;;;5073244;28;20036;-62
2023/05/10 07:15:56;;;;;;;1999.90;999.90;;;;;;;;;;5073115;28;20032;-65
2023/05/10 07:18:22;;;;;;;1999.90;999.90;;;;;;;;;;5073048;28;20028;-67
2023/05/10 07:20:48;;;;;;;1999.90;999.90;;;;;;;;;;5072907;28;20024;-68
2023/05/10 07:23:14;;;;;;;1999.90;999.90;;;;;;;;;;5072439;28;20113;-68
2023/05/10 07:25:40;;;;;;;1999.90;999.90;;;;;;;;;;5073049;28;20028;-62
2023/05/10 07:28:06;;;;;;;1999.90;999.90;;;;;;;;;;5073314;28;20037;-69
2023/05/10 07:30:32;;;;;;;1999.90;999.90;;;;;;;;;;5054135;28;20404;-67
2023/05/10 07:32:59;;;;;;;1999.90;999.90;;;;;;;;;;5073124;28;20106;-70
2023/05/10 07:35:25;;;;;;;1999.90;999.90;;;;;;;;;;5072868;28;20032;-67
2023/05/10 07:37:51;;;;;;;1999.90;999.90;;;;;;;;;;5072860;28;20384;-69
2023/05/10 07:40:17;;;;;;;1999.90;999.90;;;;;;;;;;5073007;28;20068;-62
2023/05/10 07:42:43;;;;;;;1999.90;999.90;;;;;;;;;;5073227;28;20484;-63
2023/05/10 07:45:09;;;;;;;1999.90;999.90;;;;;;;;;;5072420;28;20102;-69
2023/05/10 07:47:35;;;;;;;1999.90;999.90;;;;;;;;;;5071620;28;20121;-62
2023/05/10 07:50:01;;;;;;;1999.90;999.90;;;;;;;;;;5072914;28;20031;-66
2023/05/10 07:52:27;;;;;;;1999.90;999.90;;;;;;;;;;5072831;28;20484;-64
2023/05/10 07:54:54;;;;;;;1999.90;999.90;;;;;;;;;;5072770;28;20466;-62
2023/05/10 07:57:20;;;;;;;1999.90;999.90;;;;;;;;;;5072753;28;20047;-68
2023/05/10 07:59:46;;;;;;;1999.90;999.90;;;;;;;;;;5072785;28;20372;-60
2023/05/10 08:02:12;;;;;;;1999.90;999.90;;;;;;;;;;5072125;28;20384;-69
2023/05/10 08:04:38;;;;;;;1999.90;999.90;;;;;;;;;;5072434;28;20549;-62
2023/05/10 08:07:04;;;;;;;1999.90;999.90;;;;;;;;;;5072482;28;20048;-62
2023/05/10 08:09:30;;;;;;;1999.90;999.90;;;;;;;;;;5072604;28;20059;-68
2023/05/10 08:11:56;;;;;;;1999.90;999.90;;;;;;;;;;5072137;28;20059;-64
2023/05/10 08:14:22;;;;;;;1999.90;999.90;;;;;;;;;;5072063;28;20035;-63
2023/05/10 08:16:48;;;;;;;1999.90;999.90;;;;;;;;;;5072319;28;20028;-66
2023/05/10 08:19:18;;;;;;;1999.90;999.90;;;;;;;;;;5071831;28;20125;-60
2023/05/10 08:21:44;;;;;;;1999.90;999.90;;;;;;;;;;5071983;28;20067;-62
2023/05/10 08:24:10;;;;;;;1999.90;999.90;;;;;;;;;;5071850;28;20028;-67
2023/05/10 08:26:36;;;;;;;1999.90;999.90;;;;;;;;;;5072164;28;20040;-62
2023/05/10 08:29:03;;;;;;;1999.90;999.90;;;;;;;;;;5071609;28;20352;-69
2023/05/10 08:31:29;;;;;;;1999.90;999.90;;;;;;;;;;5071949;28;20052;-62
2023/05/10 08:33:55;;;;;;;1999.90;999.90;;;;;;;;;;5071571;28;20046;-71
2023/05/10 08:36:23;;;;;;;1999.90;999.90;;;;;;;;;;5071575;28;20547;-70
2023/05/10 08:38:52;;;;;;;1999.90;999.90;;;;;;;;;;5071723;28;20031;-70
2023/05/10 08:41:23;;;;;;;1999.90;999.90;;;;;;;;;;5071584;28;20070;-73
2023/05/10 08:43:50;;;;;;;1999.90;999.90;;;;;;;;;;5071746;28;20020;-72
2023/05/10 08:46:17;;;;;;;1999.90;999.90;;;;;;;;;;5071558;28;20070;-71
2023/05/10 08:48:45;;;;;;;1999.90;999.90;;;;;;;;;;5071473;28;20553;-69
2023/05/10 08:51:14;;;;;;;1999.90;999.90;;;;;;;;;;5071509;28;20051;-68
2023/05/10 08:53:40;;;;;;;1999.90;999.90;;;;;;;;;;5071704;28;20368;-72
2023/05/10 08:56:06;;;;;;;1999.90;999.90;;;;;;;;;;5052335;28;20055;-69
2023/05/10 08:58:32;;;;;;;1999.90;999.90;;;;;;;;;;5071279;28;20020;-69
2023/05/10 09:01:00;;;;;;;1999.90;999.90;;;;;;;;;;5071312;28;20477;-69
2023/05/10 09:03:26;;;;;;;1999.90;999.90;;;;;;;;;;5070954;28;20452;-68
2023/05/10 09:05:52;;;;;;;1999.90;999.90;;;;;;;;;;5071151;28;20029;-74
2023/05/10 09:08:18;;;;;;;1999.90;999.90;;;;;;;;;;5071126;28;20029;-71
2023/05/10 09:10:47;;;;;;;1999.90;999.90;;;;;;;;;;5071474;28;20054;-71
2023/05/10 09:13:14;;;;;;;1999.90;999.90;;;;;;;;;;5070833;28;20115;-72
2023/05/10 09:15:40;;;;;;;1999.90;999.90;;;;;;;;;;5070987;28;20093;-63
2023/05/10 09:18:06;;;;;;;1999.90;999.90;;;;;;;;;;5070938;28;20031;-71
2023/05/10 09:20:32;;;;;;;1999.90;999.90;;;;;;;;;;5070975;28;20095;-69
2023/05/10 09:22:58;;;;;;;1999.90;999.90;;;;;;;;;;5071204;28;20046;-63
2023/05/10 09:25:24;;;;;;;1999.90;999.90;;;;;;;;;;5070797;28;20028;-62
2023/05/10 09:27:50;;;;;;;1999.90;999.90;;;;;;;;;;5070998;28;20622;-74
2023/05/10 09:30:17;;;;;;;1999.90;999.90;;;;;;;;;;5070724;28;20063;-63
2023/05/10 09:32:45;;;;;;;1999.90;999.90;;;;;;;;;;5070390;28;20383;-62
2023/05/10 09:35:15;;;;;;;1999.90;999.90;;;;;;;;;;5070711;28;20124;-61
2023/05/10 09:37:42;;;;;;;1999.90;999.90;;;;;;;;;;5070346;28;20036;-70
2023/05/10 09:40:11;;;;;;;1999.90;999.90;;;;;;;;;;5070637;28;20028;-66
2023/05/10 09:42:37;;;;;;;1999.90;999.90;;;;;;;;;;5070759;28;20095;-62
2023/05/10 09:45:07;;;;;;;1999.90;999.90;;;;;;;;;;5070647;28;20039;-62
2023/05/10 09:47:33;;;;;;;1999.90;999.90;;;;;;;;;;5070795;28;20494;-61
2023/05/10 09:50:04;;;;;;;1999.90;999.90;;;;;;;;;;5070256;28;20059;-71
2023/05/10 09:52:46;;;;;;;1999.90;999.90;;;;;;;;;;5070451;28;20022;-62
2023/05/10 09:55:12;;;;;;;1999.90;999.90;;;;;;;;;;5070297;28;20037;-63
2023/05/10 09:57:39;;;;;;;1999.90;999.90;;;;;;;;;;5070587;28;20496;-68
2023/05/10 10:00:05;;;;;;;1999.90;999.90;;;;;;;;;;5070682;28;20028;-62
2023/05/10 10:02:32;;;;;;;1999.90;999.90;;;;;;;;;;5070593;28;20115;-74
2023/05/10 10:04:58;;;;;;;1999.90;999.90;;;;;;;;;;5070262;28;20032;-70
2023/05/10 10:07:25;;;;;;;1999.90;999.90;;;;;;;;;;5070391;28;20060;-61
2023/05/10 10:09:51;;;;;;;1999.90;999.90;;;;;;;;;;5070049;28;20789;-62
2023/05/10 10:12:19;;;;;;;1999.90;999.90;;;;;;;;;;5070395;28;20058;-62
2023/05/10 10:14:45;;;;;;;1999.90;999.90;;;;;;;;;;5070278;28;20119;-62
2023/05/10 10:17:12;;;;;;;1999.90;999.90;;;;;;;;;;5051609;28;20442;-64
2023/05/10 10:19:38;;;;;;;1999.90;999.90;;;;;;;;;;5070162;28;20047;-66
2023/05/10 10:22:04;;;;;;;1999.90;999.90;;;;;;;;;;5070195;28;20531;-67
2023/05/10 10:24:30;;;;;;;1999.90;999.90;;;;;;;;;;5069930;28;20017;-64
2023/05/10 10:27:02;;;;;;;1999.90;999.90;;;;;;;;;;5070461;28;20051;-64
2023/05/10 10:29:34;;;;;;;1999.90;999.90;;;;;;;;;;5069901;28;20021;-63
2023/05/10 10:32:18;;;;;;;1999.90;999.90;;;;;;;;;;5070316;28;20035;-63
2023/05/10 10:34:44;;;;;;;1999.90;999.90;;;;;;;;;;5070325;28;20037;-64
2023/05/10 10:37:10;;;;;;;1999.90;999.90;;;;;;;;;;5070432;28;20468;-65
2023/05/10 10:39:36;;;;;;;1999.90;999.90;;;;;;;;;;5070279;28;20104;-64
2023/05/10 10:42:03;;;;;;;1999.90;999.90;;;;;;;;;;5070076;28;20024;-70
2023/05/10 10:44:33;;;;;;;1999.90;999.90;;;;;;;;;;5070051;28;20029;-70
2023/05/10 10:47:02;;;;;;;1999.90;999.90;;;;;;;;;;5069818;28;20071;-65
2023/05/10 10:49:28;;;;;;;1999.90;999.90;;;;;;;;;;5070144;28;20100;-69
2023/05/10 10:52:22;;;;;;;1999.90;999.90;;;;;;;;;;5069896;28;20028;-69
2023/05/10 10:54:58;;;;;;;1999.90;999.90;;;;;;;;;;5069277;28;20017;-68
2023/05/10 10:57:26;;;;;;;1999.90;999.90;;;;;;;;;;5051099;28;20460;-67
2023/05/10 10:59:52;;;;;;;1999.90;999.90;;;;;;;;;;5069992;28;20082;-69
2023/05/10 11:02:37;;;;;;;1999.90;999.90;;;;;;;;;;5069944;28;20036;-70
2023/05/10 11:05:21;;;;;;;1999.90;999.90;;;;;;;;;;5069679;28;20067;-63
2023/05/10 11:07:57;;;;;;;1999.90;999.90;;;;;;;;;;5069322;28;20044;-71
2023/05/10 11:10:23;;;;;;;1999.90;999.90;;;;;;;;;;5069892;28;20027;-63
2023/05/10 11:13:06;;;;;;;1999.90;999.90;;;;;;;;;;5069769;28;20050;-63
2023/05/10 11:15:33;;;;;;;1999.90;999.90;;;;;;;;;;5070100;28;20361;-64
2023/05/10 11:17:59;;;;;;;1999.90;999.90;;;;;;;;;;5069823;28;20028;-64
2023/05/10 11:20:33;;;;;;;1999.90;999.90;;;;;;;;;;5069349;28;20021;-63
2023/05/10 11:23:11;;;;;;;1999.90;999.90;;;;;;;;;;5072596;28;20021;-63
2023/05/10 11:25:41;;;;;;;1999.90;999.90;;;;;;;;;;5073236;28;20551;-66
2023/05/10 11:28:07;;;;;;;1999.90;999.90;;;;;;;;;;5073327;28;20032;-69
2023/05/10 11:30:33;;;;;;;1999.90;999.90;;;;;;;;;;5073061;28;20024;-68
2023/05/10 11:32:59;;;;;;;1999.90;999.90;;;;;;;;;;5072947;28;20103;-63
2023/05/10 11:35:28;;;;;;;1999.90;999.90;;;;;;;;;;5073071;28;20063;-62
2023/05/10 11:37:54;;;;;;;1999.90;999.90;;;;;;;;;;5072939;28;20040;-62
2023/05/10 11:40:24;;;;;;;1999.90;999.90;;;;;;;;;;5073172;28;20434;-68
2023/05/10 11:42:50;;;;;;;1999.90;999.90;;;;;;;;;;5072928;28;20021;-63
2023/05/10 11:45:16;;;;;;;1999.90;999.90;;;;;;;;;;5072277;28;20082;-62
2023/05/10 11:47:43;;;;;;;1999.90;999.90;;;;;;;;;;5072737;28;20025;-61
2023/05/10 11:50:12;;;;;;;1999.90;999.90;;;;;;;;;;5072706;28;20032;-64
2023/05/10 11:52:39;;;;;;;1999.90;999.90;;;;;;;;;;5037807;28;20074;-61
2023/05/10 11:55:11;;;;;;;1999.90;999.90;;;;;;;;;;5070920;28;20043;-63
2023/05/10 11:57:41;;;;;;;1999.90;999.90;;;;;;;;;;5053773;28;20054;-68
2023/05/10 12:00:07;;;;;;;1999.90;999.90;;;;;;;;;;5071956;28;20394;-70
2023/05/10 12:02:33;;;;;;;1999.90;999.90;;;;;;;;;;5072650;28;20067;-64
2023/05/10 12:05:00;;;;;;;1999.90;999.90;;;;;;;;;;5073023;28;20029;-63
2023/05/10 12:07:26;;;;;;;1999.90;999.90;;;;;;;;;;5071425;28;20032;-64
2023/05/10 12:10:14;;;;;;;1999.90;999.90;;;;;;;;;;5072575;28;20499;-63
2023/05/10 12:12:42;;;;;;;1999.90;999.90;;;;;;;;;;5072781;28;20032;-73
2023/05/10 12:15:19;;;;;;;1999.90;999.90;;;;;;;;;;5072437;28;20479;-69
2023/05/10 12:17:46;;;;;;;1999.90;999.90;;;;;;;;;;5072564;28;20060;-64
2023/05/10 12:20:15;;;;;;;1999.90;999.90;;;;;;;;;;5072813;28;20089;-75
2023/05/10 12:22:41;;;;;;;1999.90;999.90;;;;;;;;;;5072517;28;20391;-75
2023/05/10 12:25:08;;;;;;;1999.90;999.90;;;;;;;;;;5072139;28;20873;-63
2023/05/10 12:27:35;;;;;;;1999.90;999.90;;;;;;;;;;5072087;28;20037;-64
2023/05/10 12:30:01;;;;;;;1999.90;999.90;;;;;;;;;;5072402;28;20441;-76
2023/05/10 12:32:42;;;;;;;1999.90;999.90;;;;;;;;;;5071650;28;20150;-64
2023/05/10 12:35:08;;;;;;;1999.90;999.90;;;;;;;;;;5071867;28;20020;-64
2023/05/10 12:37:38;;;;;;;1999.90;999.90;;;;;;;;;;5068639;28;20432;-74
2023/05/10 12:40:06;;;;;;;1999.90;999.90;;;;;;;;;;5072052;28;20137;-63
2023/05/10 12:42:32;;;;;;;1999.90;999.90;;;;;;;;;;5072389;28;20036;-75
2023/05/10 12:44:58;;;;;;;1999.90;999.90;;;;;;;;;;5071887;28;20025;-63
2023/05/10 12:47:24;;;;;;;1999.90;999.90;;;;;;;;;;5071809;28;20143;-68
2023/05/10 12:49:51;;;;;;;1999.90;999.90;;;;;;;;;;5072006;28;20020;-62
2023/05/10 12:52:17;;;;;;;1999.90;999.90;;;;;;;;;;5072000;28;20031;-64
2023/05/10 12:54:43;;;;;;;1999.90;999.90;;;;;;;;;;5071427;28;20384;-63
2023/05/10 12:57:09;;;;;;;1999.90;999.90;;;;;;;;;;5071736;28;20044;-64
2023/05/10 12:59:35;;;;;;;1999.90;999.90;;;;;;;;;;5071346;28;20032;-63
2023/05/10 13:02:01;;;;;;;1999.90;999.90;;;;;;;;;;5071281;28;20043;-66
2023/05/10 13:04:27;;;;;;;1999.90;999.90;;;;;;;;;;5071176;28;20021;-64
2023/05/10 13:06:55;;;;;;;1999.90;999.90;;;;;;;;;;5071165;28;20075;-64
2023/05/10 13:09:21;;;;;;;1999.90;999.90;;;;;;;;;;5071580;28;20021;-67
2023/05/10 13:11:48;;;;;;;1999.90;999.90;;;;;;;;;;5071159;28;20094;-67
2023/05/10 13:14:14;;;;;;;1999.90;999.90;;;;;;;;;;5071728;28;20016;-68
2023/05/10 13:16:40;;;;;;;1999.90;999.90;;;;;;;;;;5071577;28;20025;-59
2023/05/10 13:19:06;;;;;;;1999.90;999.90;;;;;;;;;;5071030;28;20107;-68
2023/05/10 13:21:32;;;;;;;1999.90;999.90;;;;;;;;;;5071157;28;20104;-65
2023/05/10 13:23:59;;;;;;;1999.90;999.90;;;;;;;;;;5070928;28;20429;-63
2023/05/10 13:26:26;;;;;;;1999.90;999.90;;;;;;;;;;5070885;28;20043;-66
2023/05/10 13:28:52;;;;;;;1999.90;999.90;;;;;;;;;;5071108;28;20055;-66
2023/05/10 13:31:18;;;;;;;1999.90;999.90;;;;;;;;;;5071246;28;20055;-59
2023/05/10 13:33:44;;;;;;;1999.90;999.90;;;;;;;;;;5070990;28;20476;-64
2023/05/10 13:36:10;;;;;;;1999.90;999.90;;;;;;;;;;5071125;28;20099;-63
2023/05/10 13:38:36;;;;;;;1999.90;999.90;;;;;;;;;;5070958;28;20070;-61
2023/05/10 13:41:02;;;;;;;1999.90;999.90;;;;;;;;;;5071116;28;20025;-67
2023/05/10 13:43:29;;;;;;;1999.90;999.90;;;;;;;;;;5070895;28;20029;-61